sensor_id;sensor_type;location;lat;lon;timestamp;temperature;humidity
22813;DHT22;11573;51.334;3.244;2023-12-28T00:00:27;10.70;99.90
22813;DHT22;11573;51.334;3.244;2023-12-28T00:02:54;10.70;99.90
22813;DHT22;11573;51.334;3.244;2023-12-28T00:05:21;10.70;99.90
22813;DHT22;11573;51.334;3.244;2023-12-28T00:07:49;10.70;99.90
22813;DHT22;11573;51.334;3.244;2023-12-28T00:10:25;10.70;99.90
22813;DHT22;11573;51.334;3.244;2023-12-28T00:12:54;10.70;99.90
22813;DHT22;11573;51.334;3.244;2023-12-28T00:15:22;10.70;99.90
22813;DHT22;11573;51.334;3.244;2023-12-28T00:17:49;10.80;99.90
22813;DHT22;11573;51.334;3.244;2023-12-28T00:20:17;10.70;99.90
22813;DHT22;11573;51.334;3.244;2023-12-28T00:22:44;10.70;99.90
22813;DHT22;11573;51.334;3.244;2023-12-28T00:25:12;10.70;99.90
22813;DHT22;11573;51.334;3.244;2023-12-28T00:27:39;10.70;99.90
22813;DHT22;11573;51.334;3.244;2023-12-28T00:30:06;10.70;99.90
22813;DHT22;11573;51.334;3.244;2023-12-28T00:32:34;10.70;99.90
22813;DHT22;11573;51.334;3.244;2023-12-28T00:35:02;10.70;99.90
22813;DHT22;11573;51.334;3.244;2023-12-28T00:37:29;10.70;99.90
22813;DHT22;11573;51.334;3.244;2023-12-28T00:39:57;10.70;99.90
22813;DHT22;11573;51.334;3.244;2023-12-28T00:42:24;10.70;99.90
22813;DHT22;11573;51.334;3.244;2023-12-28T00:44:51;10.70;99.90
22813;DHT22;11573;51.334;3.244;2023-12-28T00:47:20;10.80;99.90
22813;DHT22;11573;51.334;3.244;2023-12-28T00:49:47;10.80;99.90
22813;DHT22;11573;51.334;3.244;2023-12-28T00:52:16;10.90;99.90
22813;DHT22;11573;51.334;3.244;2023-12-28T00:54:43;10.90;99.90
22813;DHT22;11573;51.334;3.244;2023-12-28T00:57:10;10.90;99.90
22813;DHT22;11573;51.334;3.244;2023-12-28T00:59:37;10.90;99.90
22813;DHT22;11573;51.334;3.244;2023-12-28T01:02:05;10.90;99.90
22813;DHT22;11573;51.334;3.244;2023-12-28T01:04:32;10.80;99.90
22813;DHT22;11573;51.334;3.244;2023-12-28T01:07:00;10.90;99.90
22813;DHT22;11573;51.334;3.244;2023-12-28T01:09:29;10.90;99.90
22813;DHT22;11573;51.334;3.244;2023-12-28T01:11:57;10.80;99.90
22813;DHT22;11573;51.334;3.244;2023-12-28T01:14:24;10.80;99.90
22813;DHT22;11573;51.334;3.244;2023-12-28T01:16:52;10.80;99.90
22813;DHT22;11573;51.334;3.244;2023-12-28T01:19:20;10.80;99.90
22813;DHT22;11573;51.334;3.244;2023-12-28T01:21:49;10.80;99.90
22813;DHT22;11573;51.334;3.244;2023-12-28T01:24:16;10.90;99.90
22813;DHT22;11573;51.334;3.244;2023-12-28T01:26:44;10.90;99.90
22813;DHT22;11573;51.334;3.244;2023-12-28T01:29:11;10.90;99.90
22813;DHT22;11573;51.334;3.244;2023-12-28T01:31:39;10.90;99.90
22813;DHT22;11573;51.334;3.244;2023-12-28T01:34:09;10.90;99.90
22813;DHT22;11573;51.334;3.244;2023-12-28T01:36:36;10.90;99.90
22813;DHT22;11573;51.334;3.244;2023-12-28T01:39:04;10.90;99.90
22813;DHT22;11573;51.334;3.244;2023-12-28T01:41:31;10.80;99.90
22813;DHT22;11573;51.334;3.244;2023-12-28T01:43:58;10.80;99.90
22813;DHT22;11573;51.334;3.244;2023-12-28T01:46:25;10.80;99.90
22813;DHT22;11573;51.334;3.244;2023-12-28T01:48:53;10.70;99.90
22813;DHT22;11573;51.334;3.244;2023-12-28T01:51:23;10.70;99.90
22813;DHT22;11573;51.334;3.244;2023-12-28T01:53:52;10.70;99.90
22813;DHT22;11573;51.334;3.244;2023-12-28T01:56:20;10.70;99.90
22813;DHT22;11573;51.334;3.244;2023-12-28T01:58:49;10.70;99.90
22813;DHT22;11573;51.334;3.244;2023-12-28T02:01:18;10.80;99.90
22813;DHT22;11573;51.334;3.244;2023-12-28T02:03:46;10.80;99.90
22813;DHT22;11573;51.334;3.244;2023-12-28T02:06:14;10.80;99.90
22813;DHT22;11573;51.334;3.244;2023-12-28T02:08:46;10.80;99.90
22813;DHT22;11573;51.334;3.244;2023-12-28T02:11:13;10.80;99.90
22813;DHT22;11573;51.334;3.244;2023-12-28T02:13:41;10.70;99.90
22813;DHT22;11573;51.334;3.244;2023-12-28T02:16:15;10.80;99.90
22813;DHT22;11573;51.334;3.244;2023-12-28T02:18:50;10.80;99.90
22813;DHT22;11573;51.334;3.244;2023-12-28T02:21:20;10.80;99.90
22813;DHT22;11573;51.334;3.244;2023-12-28T02:23:48;10.80;99.90
22813;DHT22;11573;51.334;3.244;2023-12-28T02:26:16;10.80;99.90
22813;DHT22;11573;51.334;3.244;2023-12-28T02:28:45;10.80;99.90
22813;DHT22;11573;51.334;3.244;2023-12-28T02:31:21;10.70;99.90
22813;DHT22;11573;51.334;3.244;2023-12-28T02:33:57;10.80;99.90
22813;DHT22;11573;51.334;3.244;2023-12-28T02:36:26;10.70;99.90
22813;DHT22;11573;51.334;3.244;2023-12-28T02:38:56;10.70;99.90
22813;DHT22;11573;51.334;3.244;2023-12-28T02:41:26;10.70;99.90
22813;DHT22;11573;51.334;3.244;2023-12-28T02:43:53;10.70;99.90
22813;DHT22;11573;51.334;3.244;2023-12-28T02:46:21;10.70;99.90
22813;DHT22;11573;51.334;3.244;2023-12-28T02:48:49;10.70;99.90
22813;DHT22;11573;51.334;3.244;2023-12-28T02:51:17;10.70;99.90
22813;DHT22;11573;51.334;3.244;2023-12-28T02:53:44;10.70;99.90
22813;DHT22;11573;51.334;3.244;2023-12-28T02:56:11;10.60;99.90
22813;DHT22;11573;51.334;3.244;2023-12-28T02:58:40;10.70;99.90
22813;DHT22;11573;51.334;3.244;2023-12-28T03:01:08;10.60;99.90
22813;DHT22;11573;51.334;3.244;2023-12-28T03:03:35;10.60;99.90
22813;DHT22;11573;51.334;3.244;2023-12-28T03:06:02;10.60;99.90
22813;DHT22;11573;51.334;3.244;2023-12-28T03:08:30;10.50;99.90
22813;DHT22;11573;51.334;3.244;2023-12-28T03:10:58;10.50;99.90
22813;DHT22;11573;51.334;3.244;2023-12-28T03:13:25;10.50;99.90
22813;DHT22;11573;51.334;3.244;2023-12-28T03:15:53;10.60;99.90
22813;DHT22;11573;51.334;3.244;2023-12-28T03:18:21;10.70;99.90
22813;DHT22;11573;51.334;3.244;2023-12-28T03:20:48;10.70;99.90
22813;DHT22;11573;51.334;3.244;2023-12-28T03:23:15;10.80;99.90
22813;DHT22;11573;51.334;3.244;2023-12-28T03:25:43;10.90;99.90
22813;DHT22;11573;51.334;3.244;2023-12-28T03:28:10;10.90;99.90
22813;DHT22;11573;51.334;3.244;2023-12-28T03:30:38;10.90;99.90
22813;DHT22;11573;51.334;3.244;2023-12-28T03:33:07;10.90;99.90
22813;DHT22;11573;51.334;3.244;2023-12-28T03:35:34;11.00;99.90
22813;DHT22;11573;51.334;3.244;2023-12-28T03:38:01;11.00;99.90
22813;DHT22;11573;51.334;3.244;2023-12-28T03:40:28;11.00;99.90
22813;DHT22;11573;51.334;3.244;2023-12-28T03:42:56;11.00;99.90
22813;DHT22;11573;51.334;3.244;2023-12-28T03:45:24;11.00;99.90
22813;DHT22;11573;51.334;3.244;2023-12-28T03:47:51;11.10;99.90
22813;DHT22;11573;51.334;3.244;2023-12-28T03:50:18;11.10;99.90
22813;DHT22;11573;51.334;3.244;2023-12-28T03:52:46;11.10;99.90
22813;DHT22;11573;51.334;3.244;2023-12-28T03:55:13;11.10;99.90
22813;DHT22;11573;51.334;3.244;2023-12-28T03:57:41;11.10;99.90
22813;DHT22;11573;51.334;3.244;2023-12-28T04:00:10;11.10;99.90
22813;DHT22;11573;51.334;3.244;2023-12-28T04:02:40;11.00;99.90
22813;DHT22;11573;51.334;3.244;2023-12-28T04:05:07;11.10;99.90
22813;DHT22;11573;51.334;3.244;2023-12-28T04:07:36;11.00;99.90
22813;DHT22;11573;51.334;3.244;2023-12-28T04:10:04;11.10;99.90
22813;DHT22;11573;51.334;3.244;2023-12-28T04:12:32;11.10;99.90
22813;DHT22;11573;51.334;3.244;2023-12-28T04:15:00;11.10;99.90
22813;DHT22;11573;51.334;3.244;2023-12-28T04:17:27;11.10;99.90
22813;DHT22;11573;51.334;3.244;2023-12-28T04:19:54;11.10;99.90
22813;DHT22;11573;51.334;3.244;2023-12-28T04:22:22;11.10;99.90
22813;DHT22;11573;51.334;3.244;2023-12-28T04:24:49;11.10;99.90
22813;DHT22;11573;51.334;3.244;2023-12-28T04:27:16;11.20;99.90
22813;DHT22;11573;51.334;3.244;2023-12-28T04:29:44;11.10;99.90
22813;DHT22;11573;51.334;3.244;2023-12-28T04:32:12;11.10;99.90
22813;DHT22;11573;51.334;3.244;2023-12-28T04:34:40;11.20;99.90
22813;DHT22;11573;51.334;3.244;2023-12-28T04:37:08;11.20;99.90
22813;DHT22;11573;51.334;3.244;2023-12-28T04:39:35;11.10;99.90
22813;DHT22;11573;51.334;3.244;2023-12-28T04:42:02;11.10;99.90
22813;DHT22;11573;51.334;3.244;2023-12-28T04:44:30;11.10;99.90
22813;DHT22;11573;51.334;3.244;2023-12-28T04:46:58;11.10;99.90
22813;DHT22;11573;51.334;3.244;2023-12-28T04:49:25;11.00;99.90
22813;DHT22;11573;51.334;3.244;2023-12-28T04:51:53;11.00;99.90
22813;DHT22;11573;51.334;3.244;2023-12-28T04:54:21;11.00;99.90
22813;DHT22;11573;51.334;3.244;2023-12-28T04:56:48;11.00;99.90
22813;DHT22;11573;51.334;3.244;2023-12-28T04:59:15;11.00;99.90
22813;DHT22;11573;51.334;3.244;2023-12-28T05:01:43;11.00;99.90
22813;DHT22;11573;51.334;3.244;2023-12-28T05:04:11;11.00;99.90
22813;DHT22;11573;51.334;3.244;2023-12-28T05:06:44;11.00;99.90
22813;DHT22;11573;51.334;3.244;2023-12-28T05:09:13;11.00;99.90
22813;DHT22;11573;51.334;3.244;2023-12-28T05:11:40;11.10;99.90
22813;DHT22;11573;51.334;3.244;2023-12-28T05:14:07;11.10;99.90
22813;DHT22;11573;51.334;3.244;2023-12-28T05:16:37;11.10;99.90
22813;DHT22;11573;51.334;3.244;2023-12-28T05:19:04;11.00;99.90
22813;DHT22;11573;51.334;3.244;2023-12-28T05:21:32;11.00;99.90
22813;DHT22;11573;51.334;3.244;2023-12-28T05:23:59;11.00;99.90
22813;DHT22;11573;51.334;3.244;2023-12-28T05:26:27;10.90;99.90
22813;DHT22;11573;51.334;3.244;2023-12-28T05:28:54;10.90;99.90
22813;DHT22;11573;51.334;3.244;2023-12-28T05:31:21;10.80;99.90
22813;DHT22;11573;51.334;3.244;2023-12-28T05:33:49;10.80;99.90
22813;DHT22;11573;51.334;3.244;2023-12-28T05:36:16;10.70;99.90
22813;DHT22;11573;51.334;3.244;2023-12-28T05:38:44;10.70;99.90
22813;DHT22;11573;51.334;3.244;2023-12-28T05:41:11;10.60;99.90
22813;DHT22;11573;51.334;3.244;2023-12-28T05:43:39;10.70;99.90
22813;DHT22;11573;51.334;3.244;2023-12-28T05:46:06;10.60;99.90
22813;DHT22;11573;51.334;3.244;2023-12-28T05:48:33;10.70;99.90
22813;DHT22;11573;51.334;3.244;2023-12-28T05:51:01;10.70;99.90
22813;DHT22;11573;51.334;3.244;2023-12-28T05:53:28;10.70;99.90
22813;DHT22;11573;51.334;3.244;2023-12-28T05:55:56;10.70;99.90
22813;DHT22;11573;51.334;3.244;2023-12-28T05:58:23;10.70;99.90
22813;DHT22;11573;51.334;3.244;2023-12-28T06:00:51;10.80;99.90
22813;DHT22;11573;51.334;3.244;2023-12-28T06:03:18;10.80;99.90
22813;DHT22;11573;51.334;3.244;2023-12-28T06:05:46;10.80;99.90
22813;DHT22;11573;51.334;3.244;2023-12-28T06:08:13;10.80;99.90
22813;DHT22;11573;51.334;3.244;2023-12-28T06:10:41;10.70;99.90
22813;DHT22;11573;51.334;3.244;2023-12-28T06:13:08;10.70;99.90
22813;DHT22;11573;51.334;3.244;2023-12-28T06:15:35;10.70;99.90
22813;DHT22;11573;51.334;3.244;2023-12-28T06:18:03;10.70;99.90
22813;DHT22;11573;51.334;3.244;2023-12-28T06:20:32;10.70;99.90
22813;DHT22;11573;51.334;3.244;2023-12-28T06:22:59;10.70;99.90
22813;DHT22;11573;51.334;3.244;2023-12-28T06:25:27;10.80;99.90
22813;DHT22;11573;51.334;3.244;2023-12-28T06:27:54;10.80;99.90
22813;DHT22;11573;51.334;3.244;2023-12-28T06:30:21;10.80;99.90
22813;DHT22;11573;51.334;3.244;2023-12-28T06:32:49;10.80;99.90
22813;DHT22;11573;51.334;3.244;2023-12-28T06:35:16;10.80;99.90
22813;DHT22;11573;51.334;3.244;2023-12-28T06:37:44;10.90;99.90
22813;DHT22;11573;51.334;3.244;2023-12-28T06:40:12;10.90;99.90
22813;DHT22;11573;51.334;3.244;2023-12-28T06:42:39;10.90;99.90
22813;DHT22;11573;51.334;3.244;2023-12-28T06:45:08;10.90;99.90
22813;DHT22;11573;51.334;3.244;2023-12-28T06:47:36;10.90;99.90
22813;DHT22;11573;51.334;3.244;2023-12-28T06:50:04;10.90;99.90
22813;DHT22;11573;51.334;3.244;2023-12-28T06:52:31;10.90;99.90
22813;DHT22;11573;51.334;3.244;2023-12-28T06:55:00;10.90;99.90
22813;DHT22;11573;51.334;3.244;2023-12-28T06:57:27;10.90;99.90
22813;DHT22;11573;51.334;3.244;2023-12-28T06:59:54;11.00;99.90
22813;DHT22;11573;51.334;3.244;2023-12-28T07:02:23;11.00;99.90
22813;DHT22;11573;51.334;3.244;2023-12-28T07:04:50;11.00;99.90
22813;DHT22;11573;51.334;3.244;2023-12-28T07:07:18;11.00;99.90
22813;DHT22;11573;51.334;3.244;2023-12-28T07:09:45;11.00;99.90
22813;DHT22;11573;51.334;3.244;2023-12-28T07:12:12;11.00;99.90
22813;DHT22;11573;51.334;3.244;2023-12-28T07:14:40;10.90;99.90
22813;DHT22;11573;51.334;3.244;2023-12-28T07:17:07;10.90;99.90
22813;DHT22;11573;51.334;3.244;2023-12-28T07:19:34;10.90;99.90
22813;DHT22;11573;51.334;3.244;2023-12-28T07:22:02;10.90;99.90
22813;DHT22;11573;51.334;3.244;2023-12-28T07:24:30;11.00;99.90
22813;DHT22;11573;51.334;3.244;2023-12-28T07:26:57;11.00;99.90
22813;DHT22;11573;51.334;3.244;2023-12-28T07:29:24;11.00;99.90
22813;DHT22;11573;51.334;3.244;2023-12-28T07:31:54;11.10;99.90
22813;DHT22;11573;51.334;3.244;2023-12-28T07:34:21;11.10;99.90
22813;DHT22;11573;51.334;3.244;2023-12-28T07:36:48;11.10;99.90
22813;DHT22;11573;51.334;3.244;2023-12-28T07:39:16;11.10;99.90
22813;DHT22;11573;51.334;3.244;2023-12-28T07:41:43;11.10;99.90
22813;DHT22;11573;51.334;3.244;2023-12-28T07:44:11;11.10;99.90
22813;DHT22;11573;51.334;3.244;2023-12-28T07:46:38;11.10;99.90
22813;DHT22;11573;51.334;3.244;2023-12-28T07:49:05;11.10;99.90
22813;DHT22;11573;51.334;3.244;2023-12-28T07:51:33;11.20;99.90
22813;DHT22;11573;51.334;3.244;2023-12-28T07:54:00;11.20;99.90
22813;DHT22;11573;51.334;3.244;2023-12-28T07:56:28;11.20;99.90
22813;DHT22;11573;51.334;3.244;2023-12-28T07:58:55;11.20;99.90
22813;DHT22;11573;51.334;3.244;2023-12-28T08:01:22;11.20;99.90
22813;DHT22;11573;51.334;3.244;2023-12-28T08:03:50;11.20;99.90
22813;DHT22;11573;51.334;3.244;2023-12-28T08:06:20;11.10;99.90
22813;DHT22;11573;51.334;3.244;2023-12-28T08:08:51;11.20;99.90
22813;DHT22;11573;51.334;3.244;2023-12-28T08:11:22;11.20;99.90
22813;DHT22;11573;51.334;3.244;2023-12-28T08:13:53;11.20;99.90
22813;DHT22;11573;51.334;3.244;2023-12-28T08:16:20;11.10;99.90
22813;DHT22;11573;51.334;3.244;2023-12-28T08:18:48;11.10;99.90
22813;DHT22;11573;51.334;3.244;2023-12-28T08:21:16;11.20;99.90
22813;DHT22;11573;51.334;3.244;2023-12-28T08:23:43;11.20;99.90
22813;DHT22;11573;51.334;3.244;2023-12-28T08:26:11;11.20;99.90
22813;DHT22;11573;51.334;3.244;2023-12-28T08:28:39;11.20;99.90
22813;DHT22;11573;51.334;3.244;2023-12-28T08:31:07;11.20;99.90
22813;DHT22;11573;51.334;3.244;2023-12-28T08:33:36;11.20;99.90
22813;DHT22;11573;51.334;3.244;2023-12-28T08:36:07;11.20;99.90
22813;DHT22;11573;51.334;3.244;2023-12-28T08:38:35;11.20;99.90
22813;DHT22;11573;51.334;3.244;2023-12-28T08:41:02;11.20;99.90
22813;DHT22;11573;51.334;3.244;2023-12-28T08:43:36;11.20;99.90
22813;DHT22;11573;51.334;3.244;2023-12-28T08:46:07;11.20;99.90
22813;DHT22;11573;51.334;3.244;2023-12-28T08:48:34;11.30;99.90
22813;DHT22;11573;51.334;3.244;2023-12-28T08:51:01;11.30;99.90
22813;DHT22;11573;51.334;3.244;2023-12-28T08:53:29;11.30;99.90
22813;DHT22;11573;51.334;3.244;2023-12-28T08:55:56;11.30;99.90
22813;DHT22;11573;51.334;3.244;2023-12-28T08:58:23;11.40;99.90
22813;DHT22;11573;51.334;3.244;2023-12-28T09:00:51;11.30;99.90
22813;DHT22;11573;51.334;3.244;2023-12-28T09:03:19;11.30;99.90
22813;DHT22;11573;51.334;3.244;2023-12-28T09:05:50;11.30;99.90
22813;DHT22;11573;51.334;3.244;2023-12-28T09:08:17;11.30;99.90
22813;DHT22;11573;51.334;3.244;2023-12-28T09:10:44;11.40;99.90
22813;DHT22;11573;51.334;3.244;2023-12-28T09:13:15;11.40;99.90
22813;DHT22;11573;51.334;3.244;2023-12-28T09:15:43;11.40;99.90
22813;DHT22;11573;51.334;3.244;2023-12-28T09:18:11;11.40;99.90
22813;DHT22;11573;51.334;3.244;2023-12-28T09:20:39;11.40;99.90
22813;DHT22;11573;51.334;3.244;2023-12-28T09:23:07;11.40;99.90
22813;DHT22;11573;51.334;3.244;2023-12-28T09:25:36;11.40;99.90
22813;DHT22;11573;51.334;3.244;2023-12-28T09:28:05;11.40;99.90
22813;DHT22;11573;51.334;3.244;2023-12-28T09:30:32;11.40;99.90
22813;DHT22;11573;51.334;3.244;2023-12-28T09:33:00;11.40;99.90
22813;DHT22;11573;51.334;3.244;2023-12-28T09:35:28;11.40;99.90
22813;DHT22;11573;51.334;3.244;2023-12-28T09:37:56;11.40;99.90
22813;DHT22;11573;51.334;3.244;2023-12-28T09:40:24;11.40;99.90
22813;DHT22;11573;51.334;3.244;2023-12-28T09:45:42;11.50;99.90
22813;DHT22;11573;51.334;3.244;2023-12-28T09:48:09;11.60;99.90
22813;DHT22;11573;51.334;3.244;2023-12-28T09:50:37;11.70;99.90
22813;DHT22;11573;51.334;3.244;2023-12-28T09:53:04;11.60;99.90
22813;DHT22;11573;51.334;3.244;2023-12-28T09:55:32;11.60;99.90
22813;DHT22;11573;51.334;3.244;2023-12-28T09:58:00;11.70;99.90
22813;DHT22;11573;51.334;3.244;2023-12-28T10:00:29;11.70;99.90
22813;DHT22;11573;51.334;3.244;2023-12-28T10:02:57;11.70;99.90
22813;DHT22;11573;51.334;3.244;2023-12-28T10:05:25;11.60;99.90
22813;DHT22;11573;51.334;3.244;2023-12-28T10:07:55;11.60;99.90
22813;DHT22;11573;51.334;3.244;2023-12-28T10:10:23;11.70;99.90
22813;DHT22;11573;51.334;3.244;2023-12-28T10:12:50;11.80;99.90
22813;DHT22;11573;51.334;3.244;2023-12-28T10:15:18;11.80;99.90
22813;DHT22;11573;51.334;3.244;2023-12-28T10:17:46;11.80;99.90
22813;DHT22;11573;51.334;3.244;2023-12-28T10:20:14;11.80;99.90
22813;DHT22;11573;51.334;3.244;2023-12-28T10:22:43;11.70;99.90
22813;DHT22;11573;51.334;3.244;2023-12-28T10:25:11;11.80;99.90
22813;DHT22;11573;51.334;3.244;2023-12-28T10:27:39;11.80;99.90
22813;DHT22;11573;51.334;3.244;2023-12-28T10:30:10;11.90;99.90
22813;DHT22;11573;51.334;3.244;2023-12-28T10:32:41;11.70;99.90
22813;DHT22;11573;51.334;3.244;2023-12-28T10:35:09;11.70;99.90
22813;DHT22;11573;51.334;3.244;2023-12-28T10:37:40;11.70;99.90
22813;DHT22;11573;51.334;3.244;2023-12-28T10:40:13;11.70;99.90
22813;DHT22;11573;51.334;3.244;2023-12-28T10:45:16;11.70;99.90
22813;DHT22;11573;51.334;3.244;2023-12-28T10:50:48;11.80;99.90
22813;DHT22;11573;51.334;3.244;2023-12-28T10:53:43;11.90;99.90
22813;DHT22;11573;51.334;3.244;2023-12-28T10:58:50;12.00;99.90
22813;DHT22;11573;51.334;3.244;2023-12-28T11:01:27;12.00;99.90
22813;DHT22;11573;51.334;3.244;2023-12-28T11:04:03;12.00;99.90
22813;DHT22;11573;51.334;3.244;2023-12-28T11:06:33;12.00;99.90
22813;DHT22;11573;51.334;3.244;2023-12-28T11:09:02;11.90;99.90
22813;DHT22;11573;51.334;3.244;2023-12-28T11:11:32;11.90;99.90
22813;DHT22;11573;51.334;3.244;2023-12-28T11:14:00;11.90;99.90
22813;DHT22;11573;51.334;3.244;2023-12-28T11:16:29;11.90;99.90
22813;DHT22;11573;51.334;3.244;2023-12-28T11:18:57;12.00;99.90
22813;DHT22;11573;51.334;3.244;2023-12-28T11:21:25;12.00;99.90
22813;DHT22;11573;51.334;3.244;2023-12-28T11:23:54;12.00;99.90
22813;DHT22;11573;51.334;3.244;2023-12-28T11:26:22;12.00;99.90
22813;DHT22;11573;51.334;3.244;2023-12-28T11:28:49;12.00;99.90
22813;DHT22;11573;51.334;3.244;2023-12-28T11:31:17;12.00;99.90
22813;DHT22;11573;51.334;3.244;2023-12-28T11:33:46;12.00;99.90
22813;DHT22;11573;51.334;3.244;2023-12-28T11:36:34;12.00;99.90
22813;DHT22;11573;51.334;3.244;2023-12-28T11:39:05;12.00;99.90
22813;DHT22;11573;51.334;3.244;2023-12-28T11:41:33;12.00;99.90
22813;DHT22;11573;51.334;3.244;2023-12-28T11:44:05;12.00;99.90
22813;DHT22;11573;51.334;3.244;2023-12-28T11:46:35;12.00;99.90
22813;DHT22;11573;51.334;3.244;2023-12-28T11:49:08;12.00;99.90
22813;DHT22;11573;51.334;3.244;2023-12-28T11:51:38;12.00;99.90
22813;DHT22;11573;51.334;3.244;2023-12-28T11:54:06;12.10;99.90
22813;DHT22;11573;51.334;3.244;2023-12-28T11:56:34;12.10;99.90
22813;DHT22;11573;51.334;3.244;2023-12-28T11:59:02;12.20;99.90
22813;DHT22;11573;51.334;3.244;2023-12-28T12:01:29;12.30;99.90
22813;DHT22;11573;51.334;3.244;2023-12-28T12:03:56;12.50;99.90
22813;DHT22;11573;51.334;3.244;2023-12-28T12:06:25;12.40;99.90
22813;DHT22;11573;51.334;3.244;2023-12-28T12:08:52;12.40;99.90
22813;DHT22;11573;51.334;3.244;2023-12-28T12:11:20;12.30;99.90
22813;DHT22;11573;51.334;3.244;2023-12-28T12:13:50;12.30;99.90
22813;DHT22;11573;51.334;3.244;2023-12-28T12:16:18;12.40;99.90
22813;DHT22;11573;51.334;3.244;2023-12-28T12:18:46;12.40;99.90
22813;DHT22;11573;51.334;3.244;2023-12-28T12:21:13;12.30;99.90
22813;DHT22;11573;51.334;3.244;2023-12-28T12:23:40;12.30;99.90
22813;DHT22;11573;51.334;3.244;2023-12-28T12:26:08;12.20;99.90
22813;DHT22;11573;51.334;3.244;2023-12-28T12:28:35;12.20;99.90
22813;DHT22;11573;51.334;3.244;2023-12-28T12:31:03;12.20;99.90
22813;DHT22;11573;51.334;3.244;2023-12-28T12:33:32;12.20;99.90
22813;DHT22;11573;51.334;3.244;2023-12-28T12:36:00;12.20;99.90
22813;DHT22;11573;51.334;3.244;2023-12-28T12:38:28;12.20;99.90
22813;DHT22;11573;51.334;3.244;2023-12-28T12:40:55;12.20;99.90
22813;DHT22;11573;51.334;3.244;2023-12-28T12:43:23;12.10;99.90
22813;DHT22;11573;51.334;3.244;2023-12-28T12:45:50;12.00;99.90
22813;DHT22;11573;51.334;3.244;2023-12-28T12:48:18;12.00;99.90
22813;DHT22;11573;51.334;3.244;2023-12-28T12:50:46;12.00;99.90
22813;DHT22;11573;51.334;3.244;2023-12-28T12:53:13;12.00;99.90
22813;DHT22;11573;51.334;3.244;2023-12-28T12:55:41;11.90;99.90
22813;DHT22;11573;51.334;3.244;2023-12-28T12:58:13;11.90;99.90
22813;DHT22;11573;51.334;3.244;2023-12-28T13:00:40;12.00;99.90
22813;DHT22;11573;51.334;3.244;2023-12-28T13:03:08;12.00;99.90
22813;DHT22;11573;51.334;3.244;2023-12-28T13:05:39;12.10;99.90
22813;DHT22;11573;51.334;3.244;2023-12-28T13:08:06;12.10;99.90
22813;DHT22;11573;51.334;3.244;2023-12-28T13:10:34;12.10;99.90
22813;DHT22;11573;51.334;3.244;2023-12-28T13:13:02;12.20;99.90
22813;DHT22;11573;51.334;3.244;2023-12-28T13:15:33;12.30;99.90
22813;DHT22;11573;51.334;3.244;2023-12-28T13:18:01;12.30;99.90
22813;DHT22;11573;51.334;3.244;2023-12-28T13:20:28;12.30;99.90
22813;DHT22;11573;51.334;3.244;2023-12-28T13:22:55;12.40;99.90
22813;DHT22;11573;51.334;3.244;2023-12-28T13:25:24;12.40;99.90
22813;DHT22;11573;51.334;3.244;2023-12-28T13:27:51;12.40;99.90
22813;DHT22;11573;51.334;3.244;2023-12-28T13:30:18;12.40;99.90
22813;DHT22;11573;51.334;3.244;2023-12-28T13:32:45;12.30;99.90
22813;DHT22;11573;51.334;3.244;2023-12-28T13:35:13;12.20;99.90
22813;DHT22;11573;51.334;3.244;2023-12-28T13:37:40;12.30;99.90
22813;DHT22;11573;51.334;3.244;2023-12-28T13:40:08;12.30;99.90
22813;DHT22;11573;51.334;3.244;2023-12-28T13:42:35;12.30;99.90
22813;DHT22;11573;51.334;3.244;2023-12-28T13:45:03;12.30;99.90
22813;DHT22;11573;51.334;3.244;2023-12-28T13:47:31;12.30;99.90
22813;DHT22;11573;51.334;3.244;2023-12-28T13:49:58;12.30;99.90
22813;DHT22;11573;51.334;3.244;2023-12-28T13:52:25;12.30;99.90
22813;DHT22;11573;51.334;3.244;2023-12-28T13:54:53;12.30;99.90
22813;DHT22;11573;51.334;3.244;2023-12-28T13:57:20;12.30;99.90
22813;DHT22;11573;51.334;3.244;2023-12-28T13:59:48;12.30;99.90
22813;DHT22;11573;51.334;3.244;2023-12-28T14:02:15;12.20;99.90
22813;DHT22;11573;51.334;3.244;2023-12-28T14:04:42;12.20;99.90
22813;DHT22;11573;51.334;3.244;2023-12-28T14:07:10;12.10;99.90
22813;DHT22;11573;51.334;3.244;2023-12-28T14:09:37;12.10;99.90
22813;DHT22;11573;51.334;3.244;2023-12-28T14:12:05;12.10;99.90
22813;DHT22;11573;51.334;3.244;2023-12-28T14:14:34;12.10;99.90
22813;DHT22;11573;51.334;3.244;2023-12-28T14:17:01;12.00;99.90
22813;DHT22;11573;51.334;3.244;2023-12-28T14:19:32;12.00;99.90
22813;DHT22;11573;51.334;3.244;2023-12-28T14:22:00;12.00;99.90
22813;DHT22;11573;51.334;3.244;2023-12-28T14:24:27;12.00;99.90
22813;DHT22;11573;51.334;3.244;2023-12-28T14:26:55;11.90;99.90
22813;DHT22;11573;51.334;3.244;2023-12-28T14:29:23;11.90;99.90
22813;DHT22;11573;51.334;3.244;2023-12-28T14:31:51;12.00;99.90
22813;DHT22;11573;51.334;3.244;2023-12-28T14:34:19;12.00;99.90
22813;DHT22;11573;51.334;3.244;2023-12-28T14:36:47;12.00;99.90
22813;DHT22;11573;51.334;3.244;2023-12-28T14:39:18;12.00;99.90
22813;DHT22;11573;51.334;3.244;2023-12-28T14:41:46;11.90;99.90
22813;DHT22;11573;51.334;3.244;2023-12-28T14:44:13;11.90;99.90
22813;DHT22;11573;51.334;3.244;2023-12-28T14:46:41;11.80;99.90
22813;DHT22;11573;51.334;3.244;2023-12-28T14:49:08;11.80;99.90
22813;DHT22;11573;51.334;3.244;2023-12-28T14:51:36;11.80;99.90
22813;DHT22;11573;51.334;3.244;2023-12-28T14:54:03;11.80;99.90
22813;DHT22;11573;51.334;3.244;2023-12-28T14:56:31;11.80;99.90
22813;DHT22;11573;51.334;3.244;2023-12-28T14:59:11;11.80;99.90
22813;DHT22;11573;51.334;3.244;2023-12-28T15:01:38;11.80;99.90
22813;DHT22;11573;51.334;3.244;2023-12-28T15:04:06;11.90;99.90
22813;DHT22;11573;51.334;3.244;2023-12-28T15:06:33;11.80;99.90
22813;DHT22;11573;51.334;3.244;2023-12-28T15:09:00;11.80;99.90
22813;DHT22;11573;51.334;3.244;2023-12-28T15:11:28;11.70;99.90
22813;DHT22;11573;51.334;3.244;2023-12-28T15:14:11;11.70;99.90
22813;DHT22;11573;51.334;3.244;2023-12-28T15:16:39;11.70;99.90
22813;DHT22;11573;51.334;3.244;2023-12-28T15:19:07;11.70;99.90
22813;DHT22;11573;51.334;3.244;2023-12-28T15:21:34;11.60;99.90
22813;DHT22;11573;51.334;3.244;2023-12-28T15:24:02;11.60;99.90
22813;DHT22;11573;51.334;3.244;2023-12-28T15:26:31;11.60;99.90
22813;DHT22;11573;51.334;3.244;2023-12-28T15:28:58;11.60;99.90
22813;DHT22;11573;51.334;3.244;2023-12-28T15:31:25;11.60;99.90
22813;DHT22;11573;51.334;3.244;2023-12-28T15:33:53;11.60;99.90
22813;DHT22;11573;51.334;3.244;2023-12-28T15:36:20;11.60;99.90
22813;DHT22;11573;51.334;3.244;2023-12-28T15:38:48;11.60;99.90
22813;DHT22;11573;51.334;3.244;2023-12-28T15:41:15;11.60;99.90
22813;DHT22;11573;51.334;3.244;2023-12-28T15:43:42;11.60;99.90
22813;DHT22;11573;51.334;3.244;2023-12-28T15:46:10;11.60;99.90